Ljubljana Airport, Slovenia

9:08 AM CEST on September 03, 2014 (GMT +0200)
Ljubljana | Change Station
CLOSE
Current Station
Airport
Location: Ljubljana Airport,
Elevation: 1257 ft
Nearby Weather Stations

Elev 1257 ft 46.22 °N, 14.48 °E | Updated 8 minutes ago

Fog
Fog
55 °F
Feels Like 55 °F
N
5
Wind Variable Wind from East

Today
High -- | Low -- °F
--% Chance of Precip.
Yesterday
High -- | Low -- °F
Precip. -- in
6:24 AM 7:37 PM
First Quarter, 59% visible
Pressure 29.95 in
Visibility 0.2 miles
Clouds
Dew Point 54 °F
Humidity 94%
Rainfall 0.00 in
Snow Depth Not available.
UV Not available.
Pollen Not available.
Air Quality Not available.
Flu Activity Not available.
METAR LJLJ 030700Z 08004KT 050V120 0300 R30/1300U FG VV002 13/12 Q1014 NOSIG

More Conditions Fewer Conditions

Pressure 29.95 in
Visibility 0.2 miles
Clouds
Dew Point 54 °F
Humidity 94%
Rainfall 0.00 in
Snow Depth Not available.
UV Not available.
Pollen Not available.
Air Quality Not available.
Flu Activity Not available.
METAR LJLJ 030700Z 08004KT 050V120 0300 R30/1300U FG VV002 13/12 Q1014 NOSIG

More Conditions Fewer Conditions

10-Day Weather Forecast

Almanac

Astronomy

Sep. 03, 2014 Rise Set
Actual Time 6:24 AM CEST 7:37 PM CEST
Civil Twilight 5:53 AM CEST 8:08 PM CEST
Nautical Twilight 5:16 AM CEST 8:45 PM CEST
Astronomical Twilight 4:36 AM CEST 9:24 PM CEST
Moon 3:13 PM CEST No Moon Set
Length of Visible Light 14h 14m
Length of Day
13h 12m
Tomorrow will be 3m 11s shorter.
First Quarter, 59% of the Moon is Illuminated
Today
First Quarter
Sep 8
Full
Sep 15
Last Quarter
Sep 24
New
Oct 1
First Quarter

Yesterday's Extremes

Country Highs Country Lows

Community

WunderPhotos

Upload Photos

1,749,888 photos uploaded!

Nearby

Snow Depth

Not available.

Earthquake Activity

City Distance Mag. Time & Date
No recent earthquake activity has been reported nearby.
Minimum magnitude displayed is 2.5.

Coastal Water Temperatures

Place Temperature
No Stations Reporting

Nearby Weather Stations